createdAt,value
2019-04-29T00:00:58.007Z,72.39
2019-04-29T00:03:27.145Z,72.45
2019-04-29T00:05:56.261Z,72.41
2019-04-29T00:08:25.487Z,72.49
2019-04-29T00:10:54.610Z,72.53
2019-04-29T00:13:23.798Z,72.63
2019-04-29T00:16:11.991Z,72.63
2019-04-29T00:19:07.434Z,72.56
2019-04-29T00:21:35.651Z,72.57
2019-04-29T00:24:04.894Z,72.73
2019-04-29T00:26:34.016Z,72.51
2019-04-29T00:29:03.135Z,72.60
2019-04-29T00:31:32.264Z,72.55
2019-04-29T00:34:01.388Z,72.45
2019-04-29T00:36:35.344Z,72.53
2019-04-29T00:39:23.733Z,72.56
2019-04-29T00:42:16.095Z,72.55
2019-04-29T00:44:45.263Z,72.50
2019-04-29T00:47:14.903Z,72.75
2019-04-29T00:49:44.059Z,72.71
2019-04-29T00:52:13.169Z,72.67
2019-04-29T00:54:48.107Z,72.67
2019-04-29T00:57:17.274Z,72.75
2019-04-29T00:59:46.416Z,72.89
2019-04-29T01:02:15.555Z,73.07
2019-04-29T01:04:44.674Z,73.32
2019-04-29T01:07:13.824Z,73.20
2019-04-29T01:09:42.961Z,73.30
2019-04-29T01:12:12.142Z,73.24
2019-04-29T01:14:41.281Z,73.37
2019-04-29T01:17:10.403Z,73.35
2019-04-29T01:19:39.532Z,73.29
2019-04-29T01:22:08.669Z,73.20
2019-04-29T01:24:37.824Z,73.45
2019-04-29T01:29:46.573Z,73.50
2019-04-29T01:32:15.700Z,73.60
2019-04-29T01:34:50.696Z,73.64
2019-04-29T01:37:19.823Z,73.58
2019-04-29T01:39:55.187Z,73.58
2019-04-29T01:42:27.470Z,73.66
2019-04-29T01:44:56.611Z,73.76
2019-04-29T01:47:25.723Z,73.95
2019-04-29T01:49:54.844Z,74.14
2019-04-29T01:52:24.049Z,74.31
2019-04-29T01:54:53.221Z,74.35
2019-04-29T01:57:22.339Z,74.33
2019-04-29T01:59:51.486Z,74.46
2019-04-29T02:02:20.595Z,74.54
2019-04-29T02:04:49.747Z,74.59
2019-04-29T02:07:18.848Z,74.53
2019-04-29T02:09:55.793Z,74.61
2019-04-29T02:12:24.928Z,74.79
2019-04-29T02:14:54.043Z,75.12
2019-04-29T02:17:23.174Z,75.28
2019-04-29T02:19:52.395Z,75.18
2019-04-29T02:22:30.962Z,75.22
2019-04-29T02:25:11.394Z,75.23
2019-04-29T02:27:40.518Z,75.15
2019-04-29T02:30:10.694Z,75.11
2019-04-29T02:32:39.818Z,75.29
2019-04-29T02:35:08.935Z,75.25
2019-04-29T02:37:40.495Z,75.25
2019-04-29T02:40:23.222Z,75.11
2019-04-29T02:42:58.809Z,75.15
2019-04-29T02:45:31.470Z,75.36
2019-04-29T02:48:00.582Z,75.54
2019-04-29T02:50:29.708Z,75.40
2019-04-29T02:52:58.856Z,75.44
2019-04-29T02:55:32.533Z,75.69
2019-04-29T02:58:12.550Z,75.70
2019-04-29T03:01:00.162Z,75.70
2019-04-29T03:03:51.441Z,75.84
2019-04-29T03:06:20.559Z,75.82
2019-04-29T03:08:49.675Z,75.86
2019-04-29T03:11:21.399Z,75.74
2019-04-29T03:13:50.526Z,75.94
2019-04-29T03:16:20.608Z,76.22
2019-04-29T03:18:54.210Z,76.04
2019-04-29T03:21:40.663Z,76.09
2019-04-29T03:24:09.802Z,76.26
2019-04-29T03:26:38.941Z,76.46
2019-04-29T03:29:22.155Z,76.36
2019-04-29T03:31:56.738Z,76.27
2019-04-29T03:34:25.080Z,76.27
2019-04-29T03:36:54.293Z,76.51
2019-04-29T03:39:23.449Z,76.36
2019-04-29T03:41:52.586Z,76.36
2019-04-29T03:44:21.734Z,76.31
2019-04-29T03:46:50.879Z,76.15
2019-04-29T03:49:20.152Z,76.09
2019-04-29T03:51:49.298Z,76.21
2019-04-29T03:54:18.419Z,75.96
2019-04-29T03:56:47.606Z,76.16
2019-04-29T03:59:16.730Z,76.20
2019-04-29T04:01:56.220Z,76.34
2019-04-29T04:04:43.003Z,76.52
2019-04-29T04:07:46.145Z,76.39
2019-04-29T04:10:16.019Z,76.37
2019-04-29T04:12:45.303Z,76.29
2019-04-29T04:15:14.420Z,76.33
2019-04-29T04:17:53.185Z,76.36
2019-04-29T04:20:22.681Z,76.41
2019-04-29T04:22:51.812Z,76.46
2019-04-29T04:25:20.927Z,76.58
2019-04-29T04:27:50.052Z,76.60
2019-04-29T04:30:19.852Z,76.74
2019-04-29T04:32:49.008Z,76.59
2019-04-29T04:35:18.117Z,76.58
2019-04-29T04:37:47.270Z,76.61
2019-04-29T04:40:20.763Z,76.63
2019-04-29T04:42:49.904Z,76.59
2019-04-29T04:45:19.092Z,76.62
2019-04-29T04:47:48.229Z,76.77
2019-04-29T04:50:17.357Z,76.91
2019-04-29T04:52:46.471Z,76.75
2019-04-29T04:55:15.613Z,76.63
2019-04-29T04:57:44.749Z,76.59
2019-04-29T05:00:20.450Z,76.70
2019-04-29T05:02:49.515Z,76.65
2019-04-29T05:05:18.631Z,76.62
2019-04-29T05:07:47.753Z,76.56
2019-04-29T05:10:16.874Z,76.45
2019-04-29T05:12:46.329Z,76.58
2019-04-29T05:15:15.425Z,76.66
2019-04-29T05:17:44.671Z,76.53
2019-04-29T05:20:13.783Z,76.29
2019-04-29T05:22:59.164Z,76.14
2019-04-29T05:25:53.051Z,76.04
2019-04-29T05:28:22.197Z,76.00
2019-04-29T05:30:51.311Z,75.95
2019-04-29T05:33:20.459Z,75.99
2019-04-29T05:35:56.699Z,75.90
2019-04-29T05:38:48.113Z,75.75
2019-04-29T05:41:17.424Z,75.66
2019-04-29T05:44:11.775Z,75.95
2019-04-29T05:46:59.475Z,75.95
2019-04-29T05:49:37.378Z,76.04
2019-04-29T05:52:34.558Z,76.27
2019-04-29T05:55:01.662Z,76.56
2019-04-29T05:57:31.201Z,76.28
2019-04-29T06:00:00.347Z,76.11
2019-04-29T06:02:33.623Z,75.83
2019-04-29T06:05:00.361Z,75.60
2019-04-29T06:07:29.477Z,75.57
2019-04-29T06:09:58.628Z,75.33
2019-04-29T06:12:27.753Z,75.49
2019-04-29T06:14:56.894Z,75.38
2019-04-29T06:17:26.075Z,75.22
2019-04-29T06:19:55.333Z,75.29
2019-04-29T06:22:24.486Z,74.94
2019-04-29T06:24:53.639Z,74.61
2019-04-29T06:27:22.767Z,74.68
2019-04-29T06:29:51.917Z,74.42
2019-04-29T06:32:25.076Z,74.62
2019-04-29T06:34:51.903Z,74.32
2019-04-29T06:37:21.079Z,73.79
2019-04-29T06:39:50.205Z,72.75
2019-04-29T06:42:20.408Z,72.53
2019-04-29T06:44:50.770Z,72.26
2019-04-29T06:47:20.051Z,72.53
2019-04-29T06:49:49.209Z,72.86
2019-04-29T06:52:18.347Z,73.15
2019-04-29T06:54:47.601Z,72.71
2019-04-29T06:57:16.746Z,72.23
2019-04-29T06:59:47.478Z,72.81
2019-04-29T07:02:16.909Z,72.74
2019-04-29T07:04:46.075Z,72.63
2019-04-29T07:07:15.184Z,72.93
2019-04-29T07:09:44.394Z,72.66
2019-04-29T07:12:14.028Z,72.42
2019-04-29T07:14:43.298Z,71.75
2019-04-29T07:17:12.434Z,71.24
2019-04-29T07:19:41.564Z,70.71
2019-04-29T07:22:10.749Z,70.34
2019-04-29T07:24:39.890Z,70.13
2019-04-29T07:27:09.029Z,69.57
2019-04-29T07:29:38.343Z,67.73
2019-04-29T07:32:09.335Z,66.64
2019-04-29T07:34:39.576Z,67.37
2019-04-29T07:37:08.987Z,64.41
2019-04-29T07:39:38.118Z,63.84
2019-04-29T07:42:07.256Z,61.92
2019-04-29T07:47:20.288Z,62.08
2019-04-29T07:49:51.515Z,61.29
2019-04-29T07:52:20.318Z,59.61
2019-04-29T07:54:55.213Z,59.21
2019-04-29T07:57:20.326Z,59.56
2019-04-29T07:59:49.456Z,59.70
2019-04-29T08:02:18.622Z,61.27
2019-04-29T08:04:47.776Z,60.37
2019-04-29T08:07:18.128Z,59.39
2019-04-29T08:09:47.774Z,60.49
2019-04-29T08:12:17.109Z,60.64
2019-04-29T08:14:46.686Z,61.18
2019-04-29T08:17:15.819Z,61.93
2019-04-29T08:19:44.992Z,62.38
2019-04-29T08:22:17.778Z,62.50
2019-04-29T08:24:45.880Z,62.38
2019-04-29T08:27:15.824Z,62.71
2019-04-29T08:29:44.967Z,62.71
2019-04-29T08:32:14.130Z,61.58
2019-04-29T08:34:43.281Z,61.26
2019-04-29T08:37:12.576Z,59.81
2019-04-29T08:39:41.715Z,58.70
2019-04-29T08:42:13.478Z,58.28
2019-04-29T08:45:04.620Z,58.34
2019-04-29T08:47:35.901Z,58.44
2019-04-29T08:50:05.523Z,58.15
2019-04-29T08:52:34.678Z,57.35
2019-04-29T08:55:04.089Z,56.97
2019-04-29T08:57:36.577Z,57.41
2019-04-29T09:00:05.575Z,56.10
2019-04-29T09:02:35.711Z,56.05
2019-04-29T09:05:06.803Z,55.64
2019-04-29T09:07:36.700Z,56.02
2019-04-29T09:10:06.530Z,55.66
2019-04-29T09:12:35.667Z,55.09
2019-04-29T09:15:05.335Z,55.63
2019-04-29T09:17:34.474Z,55.36
2019-04-29T09:20:03.855Z,55.33
2019-04-29T09:22:34.631Z,56.04
2019-04-29T09:25:21.353Z,56.06
2019-04-29T09:27:50.509Z,56.41
2019-04-29T09:30:20.442Z,56.83
2019-04-29T09:32:49.552Z,57.45
2019-04-29T09:35:18.719Z,57.39
2019-04-29T09:37:47.890Z,57.33
2019-04-29T09:40:19.133Z,56.91
2019-04-29T09:43:15.202Z,56.78
2019-04-29T09:45:49.605Z,56.93
2019-04-29T09:48:18.728Z,57.29
2019-04-29T09:50:47.869Z,57.50
2019-04-29T09:53:17.053Z,57.55
2019-04-29T09:55:46.263Z,57.23
2019-04-29T09:58:15.386Z,57.31
2019-04-29T10:01:21.843Z,57.18
2019-04-29T10:04:06.283Z,56.88
2019-04-29T10:06:37.138Z,57.26
2019-04-29T10:09:09.451Z,57.03
2019-04-29T10:11:39.095Z,57.35
2019-04-29T10:14:08.322Z,57.86
2019-04-29T10:16:45.311Z,58.12
2019-04-29T10:19:32.195Z,58.67
2019-04-29T10:22:01.349Z,58.87
2019-04-29T10:24:30.512Z,58.72
2019-04-29T10:26:59.655Z,58.43
2019-04-29T10:29:30.369Z,58.84
2019-04-29T10:32:02.455Z,58.65
2019-04-29T10:34:31.526Z,58.66
2019-04-29T10:37:01.380Z,58.65
2019-04-29T10:39:55.174Z,58.57
2019-04-29T10:42:33.040Z,58.67
2019-04-29T10:45:24.240Z,58.76
2019-04-29T10:47:59.541Z,59.33
2019-04-29T10:50:36.835Z,59.75
2019-04-29T10:53:11.067Z,60.26
2019-04-29T10:55:39.454Z,60.78
2019-04-29T10:58:08.575Z,60.88
2019-04-29T11:01:20.630Z,61.26
2019-04-29T11:03:49.832Z,61.49
2019-04-29T11:06:19.428Z,61.91
2019-04-29T11:08:56.522Z,62.68
2019-04-29T11:11:27.304Z,62.96
2019-04-29T11:13:57.670Z,63.29
2019-04-29T11:16:45.323Z,63.64
2019-04-29T11:19:00.321Z,63.75
2019-04-29T11:21:31.173Z,63.85
2019-04-29T11:24:08.476Z,64.15
2019-04-29T11:26:48.218Z,63.77
2019-04-29T11:29:17.364Z,64.27
2019-04-29T11:31:49.058Z,65.15
2019-04-29T11:34:53.036Z,64.96
2019-04-29T11:37:20.083Z,65.36
2019-04-29T11:39:50.300Z,65.53
2019-04-29T11:42:20.412Z,65.56
2019-04-29T11:44:49.545Z,65.92
2019-04-29T11:47:20.867Z,67.05
2019-04-29T11:49:59.669Z,66.47
2019-04-29T11:52:29.312Z,66.04
2019-04-29T11:54:58.666Z,67.35
2019-04-29T11:57:43.016Z,66.65
2019-04-29T12:00:23.670Z,66.59
2019-04-29T12:02:55.676Z,67.28
2019-04-29T12:05:46.246Z,67.18
2019-04-29T12:08:16.932Z,67.42
2019-04-29T12:10:58.297Z,68.32
2019-04-29T12:13:28.165Z,68.21
2019-04-29T12:16:19.721Z,68.28
2019-04-29T12:18:52.913Z,68.15
2019-04-29T12:21:30.065Z,68.21
2019-04-29T12:24:00.675Z,68.71
2019-04-29T12:26:29.959Z,68.43
2019-04-29T12:28:59.099Z,68.55
2019-04-29T12:31:49.326Z,68.95
2019-04-29T12:34:26.852Z,69.12
2019-04-29T12:36:56.957Z,69.47
2019-04-29T12:39:54.370Z,69.64
2019-04-29T12:42:41.559Z,70.29
2019-04-29T12:45:23.233Z,70.31
2019-04-29T12:47:52.369Z,71.66
2019-04-29T12:50:22.999Z,70.95
2019-04-29T12:52:52.353Z,70.85
2019-04-29T12:55:43.661Z,71.43
2019-04-29T12:57:58.167Z,72.09
2019-04-29T13:00:30.661Z,71.49
2019-04-29T13:03:06.527Z,72.48
2019-04-29T13:06:09.482Z,72.02
2019-04-29T13:08:49.812Z,71.89
2019-04-29T13:11:20.953Z,72.19
2019-04-29T13:13:51.399Z,72.14
2019-04-29T13:16:36.485Z,72.40
2019-04-29T13:19:20.591Z,73.39
2019-04-29T13:21:52.419Z,72.86
2019-04-29T13:24:24.860Z,72.67
2019-04-29T13:26:52.623Z,72.61
2019-04-29T13:29:27.199Z,72.72
2019-04-29T13:31:52.899Z,72.92
2019-04-29T13:34:30.942Z,73.46
2019-04-29T13:37:07.237Z,72.82
2019-04-29T13:39:39.041Z,73.09
2019-04-29T13:42:02.873Z,73.57
2019-04-29T13:44:31.595Z,73.81
2019-04-29T13:47:28.366Z,73.26
2019-04-29T13:50:17.937Z,73.74
2019-04-29T13:52:39.659Z,73.15
2019-04-29T13:55:17.306Z,73.62
2019-04-29T13:57:39.917Z,74.31
2019-04-29T14:00:31.577Z,73.78
2019-04-29T14:03:07.173Z,74.41
2019-04-29T14:05:38.061Z,74.50
2019-04-29T14:08:07.515Z,74.31
2019-04-29T14:10:36.647Z,74.86
2019-04-29T14:13:15.143Z,74.02
2019-04-29T14:15:40.319Z,74.26
2019-04-29T14:18:11.625Z,74.47
2019-04-29T14:20:38.366Z,74.36
2019-04-29T14:23:07.503Z,74.61
2019-04-29T14:25:36.658Z,73.88
2019-04-29T14:28:05.967Z,73.90
2019-04-29T14:30:39.083Z,74.09
2019-04-29T14:33:06.041Z,74.30
2019-04-29T14:35:48.328Z,74.24
2019-04-29T14:38:17.635Z,74.32
2019-04-29T14:40:46.809Z,74.25
2019-04-29T14:43:31.934Z,74.46
2019-04-29T14:46:16.306Z,74.03
2019-04-29T14:48:59.559Z,74.66
2019-04-29T14:51:36.318Z,74.87
2019-04-29T14:54:01.304Z,75.09
2019-04-29T14:56:30.780Z,74.32
2019-04-29T14:59:06.928Z,74.34
2019-04-29T15:01:38.835Z,74.10
2019-04-29T15:04:18.006Z,74.80
2019-04-29T15:06:40.913Z,74.87
2019-04-29T15:09:16.872Z,74.77
2019-04-29T15:11:49.635Z,74.62
2019-04-29T15:14:36.193Z,74.33
2019-04-29T15:17:19.712Z,74.76
2019-04-29T15:20:13.896Z,74.67
2019-04-29T15:22:43.139Z,74.53
2019-04-29T15:25:12.590Z,74.87
2019-04-29T15:27:41.756Z,75.19
2019-04-29T15:30:11.905Z,75.45
2019-04-29T15:32:41.042Z,75.21
2019-04-29T15:35:10.212Z,75.02
2019-04-29T15:37:39.338Z,74.60
2019-04-29T15:40:09.474Z,74.42
2019-04-29T15:42:43.197Z,75.38
2019-04-29T15:45:09.966Z,74.80
2019-04-29T15:47:41.660Z,74.65
2019-04-29T15:50:18.760Z,74.86
2019-04-29T15:52:41.034Z,74.75
2019-04-29T15:55:10.262Z,75.03
2019-04-29T15:57:39.428Z,75.45
2019-04-29T16:00:21.284Z,75.26
2019-04-29T16:02:43.073Z,75.48
2019-04-29T16:05:54.212Z,75.08
2019-04-29T16:08:29.500Z,74.85
2019-04-29T16:11:19.014Z,74.63
2019-04-29T16:14:07.794Z,75.13
2019-04-29T16:16:19.007Z,75.15
2019-04-29T16:18:48.174Z,75.19
2019-04-29T16:21:17.347Z,75.22
2019-04-29T16:23:46.501Z,74.95
2019-04-29T16:26:15.678Z,74.84
2019-04-29T16:28:44.928Z,75.10
2019-04-29T16:31:14.491Z,74.91
2019-04-29T16:33:47.305Z,74.87
2019-04-29T16:36:14.647Z,74.90
2019-04-29T16:38:46.277Z,75.35
2019-04-29T16:41:33.647Z,75.35
2019-04-29T16:44:03.270Z,75.12
2019-04-29T16:46:37.503Z,74.91
2019-04-29T16:49:03.759Z,74.98
2019-04-29T16:51:32.924Z,74.94
2019-04-29T16:54:02.099Z,74.86
2019-04-29T16:56:31.261Z,74.86
2019-04-29T16:59:08.882Z,74.92
2019-04-29T17:01:31.414Z,74.92
2019-04-29T17:04:05.094Z,74.55
2019-04-29T17:06:35.949Z,74.32
2019-04-29T17:09:12.244Z,74.45
2019-04-29T17:11:41.560Z,75.12
2019-04-29T17:14:12.628Z,74.68
2019-04-29T17:16:41.665Z,74.37
2019-04-29T17:19:10.945Z,74.19
2019-04-29T17:21:40.099Z,74.21
2019-04-29T17:24:09.277Z,74.15
2019-04-29T17:26:48.694Z,74.14
2019-04-29T17:29:49.300Z,74.32
2019-04-29T17:32:44.522Z,74.29
2019-04-29T17:35:11.715Z,74.46
2019-04-29T17:37:41.097Z,74.27
2019-04-29T17:40:12.371Z,74.01
2019-04-29T17:42:43.157Z,74.08
2019-04-29T17:45:27.037Z,74.52
2019-04-29T17:47:55.914Z,74.75
2019-04-29T17:50:30.966Z,74.65
2019-04-29T17:53:00.420Z,74.53
2019-04-29T17:55:38.760Z,74.65
2019-04-29T17:58:17.117Z,74.40
2019-04-29T18:01:06.538Z,74.59
2019-04-29T18:03:57.736Z,74.62
2019-04-29T18:06:32.951Z,74.74
2019-04-29T18:09:30.310Z,74.82
2019-04-29T18:12:04.949Z,74.79
2019-04-29T18:14:40.394Z,74.79
2019-04-29T18:17:05.307Z,74.74
2019-04-29T18:19:42.389Z,74.72
2019-04-29T18:22:29.341Z,75.07
2019-04-29T18:25:16.091Z,75.13
2019-04-29T18:27:49.152Z,75.05
2019-04-29T18:30:21.002Z,75.02
2019-04-29T18:32:48.260Z,74.88
2019-04-29T18:35:17.636Z,75.23
2019-04-29T18:37:46.889Z,75.29
2019-04-29T18:40:16.261Z,75.27
2019-04-29T18:42:48.390Z,75.62
2019-04-29T18:45:16.395Z,75.27
2019-04-29T18:47:45.578Z,75.44
2019-04-29T18:50:15.898Z,75.41
2019-04-29T18:52:45.887Z,75.43
2019-04-29T18:55:17.231Z,74.98
2019-04-29T18:57:46.464Z,75.24
2019-04-29T19:00:19.932Z,75.41
2019-04-29T19:02:52.484Z,75.58
2019-04-29T19:05:26.393Z,75.66
2019-04-29T19:08:00.079Z,75.65
2019-04-29T19:10:32.870Z,75.91
2019-04-29T19:12:59.990Z,75.78
2019-04-29T19:15:26.385Z,75.85
2019-04-29T19:18:01.281Z,76.05
2019-04-29T19:20:26.438Z,76.32
2019-04-29T19:23:05.412Z,76.25
2019-04-29T19:25:26.550Z,75.96
2019-04-29T19:27:55.711Z,75.88
2019-04-29T19:30:29.028Z,75.96
2019-04-29T19:33:00.491Z,75.99
2019-04-29T19:35:29.403Z,75.85
2019-04-29T19:37:57.508Z,76.09
2019-04-29T19:40:30.663Z,76.08
2019-04-29T19:42:57.578Z,76.09
2019-04-29T19:45:26.901Z,76.18
2019-04-29T19:47:56.028Z,76.30
2019-04-29T19:50:25.719Z,76.10
2019-04-29T19:52:55.536Z,76.38
2019-04-29T19:55:25.240Z,76.54
2019-04-29T19:57:56.551Z,76.49
2019-04-29T20:00:29.428Z,76.31
2019-04-29T20:02:58.067Z,76.26
2019-04-29T20:05:42.342Z,76.33
2019-04-29T20:08:19.349Z,76.33
2019-04-29T20:10:48.138Z,76.28
2019-04-29T20:13:14.020Z,76.39
2019-04-29T20:15:53.926Z,76.64
2019-04-29T20:18:56.157Z,76.72
2019-04-29T20:21:28.811Z,77.31
2019-04-29T20:23:47.513Z,77.25
2019-04-29T20:26:23.766Z,76.87
2019-04-29T20:28:51.144Z,76.82
2019-04-29T20:31:22.405Z,76.86
2019-04-29T20:33:50.773Z,76.84
2019-04-29T20:36:32.933Z,77.03
2019-04-29T20:38:51.051Z,77.07
2019-04-29T20:41:36.739Z,77.27
2019-04-29T20:43:51.459Z,77.38
2019-04-29T20:46:20.830Z,77.47
2019-04-29T20:48:54.598Z,77.35
2019-04-29T20:51:23.177Z,77.15
2019-04-29T20:53:57.753Z,77.16
2019-04-29T20:56:29.863Z,77.38
2019-04-29T20:59:02.094Z,77.21
2019-04-29T21:01:38.643Z,77.10
2019-04-29T21:04:05.823Z,76.88
2019-04-29T21:06:39.236Z,76.91
2019-04-29T21:09:07.761Z,76.88
2019-04-29T21:12:05.096Z,76.96
2019-04-29T21:14:41.786Z,76.90
2019-04-29T21:17:11.358Z,76.92
2019-04-29T21:19:40.645Z,76.89
2019-04-29T21:22:20.399Z,77.08
2019-04-29T21:24:45.307Z,76.98
2019-04-29T21:27:17.701Z,77.00
2019-04-29T21:29:45.783Z,76.84
2019-04-29T21:32:15.700Z,76.80
2019-04-29T21:34:55.629Z,76.98
2019-04-29T21:40:24.772Z,76.77
2019-04-29T21:42:58.469Z,76.85
2019-04-29T21:45:27.629Z,77.05
2019-04-29T21:47:56.791Z,77.14
2019-04-29T21:50:29.373Z,77.09
2019-04-29T21:53:01.723Z,77.01
2019-04-29T21:55:29.338Z,77.13
2019-04-29T21:58:00.369Z,76.93
2019-04-29T22:00:29.503Z,76.98
2019-04-29T22:02:59.060Z,76.96
2019-04-29T22:05:28.225Z,76.94
2019-04-29T22:07:57.521Z,77.01
2019-04-29T22:10:28.999Z,77.04
2019-04-29T22:13:01.781Z,77.13
2019-04-29T22:15:32.705Z,77.06
2019-04-29T22:18:01.636Z,77.22
2019-04-29T22:20:30.293Z,77.36
2019-04-29T22:22:59.460Z,77.61
2019-04-29T22:25:28.701Z,77.85
2019-04-29T22:27:57.867Z,78.00
2019-04-29T22:30:27.114Z,77.96
2019-04-29T22:32:58.637Z,77.87
2019-04-29T22:35:27.711Z,77.73
2019-04-29T22:38:00.358Z,77.56
2019-04-29T22:40:29.493Z,77.48
2019-04-29T22:43:15.001Z,77.41
2019-04-29T22:45:44.623Z,77.45
2019-04-29T22:48:17.396Z,77.42
2019-04-29T22:50:45.503Z,77.51
2019-04-29T22:53:15.589Z,77.67
2019-04-29T22:55:45.217Z,77.88
2019-04-29T22:58:15.108Z,78.07
2019-04-29T23:00:44.507Z,78.25
2019-04-29T23:03:13.580Z,78.34
2019-04-29T23:05:42.713Z,78.46
2019-04-29T23:08:11.848Z,78.64
2019-04-29T23:10:40.986Z,78.68
2019-04-29T23:13:10.103Z,78.58
2019-04-29T23:15:39.267Z,78.59
2019-04-29T23:18:09.279Z,78.67
2019-04-29T23:21:03.988Z,78.68
2019-04-29T23:23:41.933Z,78.17
2019-04-29T23:26:11.135Z,77.83
2019-04-29T23:28:40.270Z,77.57
2019-04-29T23:31:09.394Z,77.54
2019-04-29T23:33:38.573Z,77.53
2019-04-29T23:36:09.688Z,77.47
2019-04-29T23:38:42.640Z,77.37
2019-04-29T23:41:09.427Z,77.27
2019-04-29T23:43:38.574Z,77.13
2019-04-29T23:46:07.716Z,77.03
2019-04-29T23:48:39.557Z,76.95
2019-04-29T23:51:07.710Z,76.83
2019-04-29T23:53:37.012Z,76.70
2019-04-29T23:56:09.660Z,76.70
2019-04-29T23:58:47.025Z,76.74
